createdAt,value
2022-11-27T00:02:21.194Z,7.89
2022-11-27T00:04:47.564Z,7.75
2022-11-27T00:07:14.027Z,7.34
2022-11-27T00:09:40.622Z,7.51
2022-11-27T00:12:07.354Z,7.43
2022-11-27T00:14:33.788Z,7.53
2022-11-27T00:17:00.949Z,7.36
2022-11-27T00:19:27.621Z,7.35
2022-11-27T00:21:53.969Z,7.33
2022-11-27T00:24:20.352Z,7.29
2022-11-27T00:26:46.797Z,7.59
2022-11-27T00:29:13.192Z,7.52
2022-11-27T00:31:39.654Z,7.60
2022-11-27T00:34:08.400Z,7.53
2022-11-27T00:36:35.514Z,7.64
2022-11-27T00:39:02.444Z,7.43
2022-11-27T00:41:30.387Z,7.57
2022-11-27T00:43:57.480Z,7.76
2022-11-27T00:46:29.034Z,7.82
2022-11-27T00:48:57.196Z,7.79
2022-11-27T00:51:25.031Z,7.96
2022-11-27T00:53:52.200Z,8.06
2022-11-27T00:56:27.951Z,7.83
2022-11-27T00:58:54.707Z,8.13
2022-11-27T01:01:24.091Z,7.94
2022-11-27T01:03:50.711Z,7.96
2022-11-27T01:06:18.618Z,7.97
2022-11-27T01:08:45.583Z,7.96
2022-11-27T01:11:15.658Z,7.95
2022-11-27T01:13:42.083Z,8.05
2022-11-27T01:16:14.424Z,7.97
2022-11-27T01:18:42.951Z,8.07
2022-11-27T01:21:11.432Z,8.00
2022-11-27T01:23:37.868Z,8.18
2022-11-27T01:26:06.946Z,8.04
2022-11-27T01:28:34.815Z,7.99
2022-11-27T01:31:07.047Z,7.98
2022-11-27T01:33:34.018Z,7.88
2022-11-27T01:36:03.815Z,7.95
2022-11-27T01:38:31.188Z,7.98
2022-11-27T01:41:08.697Z,7.86
2022-11-27T01:43:38.366Z,7.85
2022-11-27T01:46:11.087Z,7.82
2022-11-27T01:48:37.539Z,7.77
2022-11-27T01:51:04.492Z,7.67
2022-11-27T01:53:30.905Z,7.70
2022-11-27T01:56:01.066Z,7.61
2022-11-27T01:58:30.332Z,7.76
2022-11-27T02:00:56.772Z,7.78
2022-11-27T02:03:23.684Z,7.68
2022-11-27T02:05:50.157Z,7.65
2022-11-27T02:08:17.576Z,7.67
2022-11-27T02:11:02.956Z,7.69
2022-11-27T02:13:35.869Z,7.71
2022-11-27T02:16:24.214Z,7.80
2022-11-27T02:18:50.539Z,7.73
2022-11-27T02:21:21.300Z,7.64
2022-11-27T02:23:58.499Z,7.69
2022-11-27T02:26:44.359Z,7.76
2022-11-27T02:29:17.479Z,7.63
2022-11-27T02:32:05.962Z,7.63
2022-11-27T02:34:51.367Z,7.56
2022-11-27T02:37:39.520Z,7.63
2022-11-27T02:40:14.852Z,7.65
2022-11-27T02:42:56.161Z,7.61
2022-11-27T02:45:31.361Z,7.44
2022-11-27T02:47:58.538Z,7.39
2022-11-27T02:50:27.928Z,7.40
2022-11-27T02:52:59.698Z,7.49
2022-11-27T02:55:29.621Z,7.51
2022-11-27T02:57:58.536Z,7.51
2022-11-27T03:00:25.505Z,7.59
2022-11-27T03:02:57.588Z,7.58
2022-11-27T03:05:30.382Z,7.56
2022-11-27T03:08:08.142Z,7.55
2022-11-27T03:10:51.978Z,7.51
2022-11-27T03:13:18.668Z,7.83
2022-11-27T03:16:16.527Z,7.55
2022-11-27T03:19:02.763Z,7.53
2022-11-27T03:21:53.806Z,7.59
2022-11-27T03:24:20.264Z,7.62
2022-11-27T03:26:46.744Z,7.48
2022-11-27T03:29:18.108Z,7.61
2022-11-27T03:31:44.681Z,7.61
2022-11-27T03:34:11.548Z,7.59
2022-11-27T03:36:37.904Z,7.61
2022-11-27T03:39:04.864Z,7.66
2022-11-27T03:41:39.663Z,7.64
2022-11-27T03:44:22.424Z,7.50
2022-11-27T03:47:30.176Z,7.38
2022-11-27T03:50:17.383Z,7.46
2022-11-27T03:52:46.784Z,7.52
2022-11-27T03:55:25.374Z,7.55
2022-11-27T03:58:05.311Z,7.45
2022-11-27T04:00:37.534Z,7.25
2022-11-27T04:03:04.691Z,7.28
2022-11-27T04:05:31.202Z,7.22
2022-11-27T04:07:57.603Z,7.18
2022-11-27T04:10:24.108Z,7.20
2022-11-27T04:12:50.459Z,7.09
2022-11-27T04:15:16.961Z,7.30
2022-11-27T04:17:43.370Z,7.41
2022-11-27T04:20:12.143Z,7.53
2022-11-27T04:22:38.543Z,7.51
2022-11-27T04:25:05.239Z,7.52
2022-11-27T04:27:31.592Z,7.58
2022-11-27T04:29:58.004Z,7.54
2022-11-27T04:32:24.695Z,7.55
2022-11-27T04:34:51.080Z,7.60
2022-11-27T04:37:17.412Z,7.54
2022-11-27T04:39:43.764Z,7.38
2022-11-27T04:42:10.095Z,7.27
2022-11-27T04:44:36.615Z,7.09
2022-11-27T04:47:03.133Z,7.24
2022-11-27T04:49:29.616Z,7.42
2022-11-27T04:51:56.030Z,7.43
2022-11-27T04:54:22.608Z,7.34
2022-11-27T04:56:48.947Z,7.19
2022-11-27T04:59:15.356Z,7.08
2022-11-27T05:01:41.867Z,6.92
2022-11-27T05:04:08.240Z,6.71
2022-11-27T05:06:34.656Z,6.88
2022-11-27T05:09:02.109Z,6.73
2022-11-27T05:11:31.024Z,6.68
2022-11-27T05:14:16.962Z,6.63
2022-11-27T05:16:52.463Z,6.61
2022-11-27T05:19:21.224Z,6.68
2022-11-27T05:21:49.147Z,6.56
2022-11-27T05:24:20.179Z,6.42
2022-11-27T05:26:47.360Z,6.27
2022-11-27T05:29:14.644Z,6.21
2022-11-27T05:31:41.787Z,6.27
2022-11-27T05:34:08.604Z,6.30
2022-11-27T05:36:35.647Z,6.24
2022-11-27T05:39:04.641Z,6.15
2022-11-27T05:41:30.988Z,6.16
2022-11-27T05:43:57.366Z,6.48
2022-11-27T05:46:23.919Z,6.67
2022-11-27T05:48:50.547Z,6.43
2022-11-27T05:51:17.727Z,6.19
2022-11-27T05:53:44.505Z,6.36
2022-11-27T05:56:14.979Z,6.33
2022-11-27T05:58:42.581Z,6.15
2022-11-27T06:01:10.207Z,6.17
2022-11-27T06:03:38.896Z,6.07
2022-11-27T06:06:10.547Z,6.10
2022-11-27T06:08:38.212Z,6.10
2022-11-27T06:11:09.742Z,6.14
2022-11-27T06:13:36.599Z,5.85
2022-11-27T06:16:07.254Z,5.84
2022-11-27T06:18:34.126Z,5.97
2022-11-27T06:21:00.520Z,5.86
2022-11-27T06:23:26.951Z,5.94
2022-11-27T06:25:53.426Z,6.01
2022-11-27T06:28:19.803Z,6.19
2022-11-27T06:30:46.259Z,5.94
2022-11-27T06:33:12.608Z,6.07
2022-11-27T06:35:38.993Z,5.91
2022-11-27T06:38:05.556Z,6.09
2022-11-27T06:40:31.912Z,6.02
2022-11-27T06:42:58.237Z,5.86
2022-11-27T06:45:24.634Z,5.65
2022-11-27T06:47:51.026Z,5.54
2022-11-27T06:50:17.563Z,5.57
2022-11-27T06:52:44.047Z,5.57
2022-11-27T06:55:12.097Z,5.78
2022-11-27T06:57:38.419Z,5.40
2022-11-27T07:00:05.720Z,5.41
2022-11-27T07:02:32.091Z,5.27
2022-11-27T07:04:58.560Z,5.10
2022-11-27T07:07:25.001Z,4.98
2022-11-27T07:09:51.464Z,5.13
2022-11-27T07:12:17.844Z,5.12
2022-11-27T07:14:44.187Z,5.00
2022-11-27T07:17:10.607Z,4.99
2022-11-27T07:19:36.935Z,5.09
2022-11-27T07:22:03.401Z,4.82
2022-11-27T07:24:29.797Z,4.81
2022-11-27T07:26:56.178Z,4.86
2022-11-27T07:29:22.615Z,4.62
2022-11-27T07:31:51.354Z,4.66
2022-11-27T07:34:21.740Z,4.62
2022-11-27T07:36:48.492Z,4.68
2022-11-27T07:39:25.278Z,4.73
2022-11-27T07:42:16.777Z,5.08
2022-11-27T07:44:46.859Z,5.30
2022-11-27T07:47:13.257Z,5.27
2022-11-27T07:49:39.719Z,5.30
2022-11-27T07:52:06.588Z,5.51
2022-11-27T07:54:32.920Z,5.25
2022-11-27T07:56:59.246Z,5.23
2022-11-27T07:59:26.306Z,5.50
2022-11-27T08:01:52.788Z,5.54
2022-11-27T08:04:20.002Z,5.45
2022-11-27T08:06:48.845Z,5.43
2022-11-27T08:09:15.251Z,5.20
2022-11-27T08:11:41.887Z,5.33
2022-11-27T08:14:08.907Z,5.21
2022-11-27T08:16:36.092Z,5.51
2022-11-27T08:19:03.446Z,5.69
2022-11-27T08:21:31.079Z,5.62
2022-11-27T08:23:58.127Z,5.52
2022-11-27T08:26:27.452Z,5.38
2022-11-27T08:28:54.755Z,5.59
2022-11-27T08:31:21.887Z,5.84
2022-11-27T08:33:48.456Z,5.97
2022-11-27T08:36:18.153Z,5.98
2022-11-27T08:38:45.648Z,6.01
2022-11-27T08:41:12.004Z,6.16
2022-11-27T08:43:38.381Z,6.01
2022-11-27T08:46:07.078Z,5.87
2022-11-27T08:48:33.845Z,6.10
2022-11-27T08:51:05.778Z,6.23
2022-11-27T08:53:32.165Z,6.16
2022-11-27T08:56:06.154Z,6.11
2022-11-27T08:58:32.554Z,5.95
2022-11-27T09:00:58.981Z,6.07
2022-11-27T09:03:25.379Z,6.28
2022-11-27T09:05:51.900Z,6.37
2022-11-27T09:08:21.284Z,6.59
2022-11-27T09:10:47.692Z,6.82
2022-11-27T09:13:14.083Z,6.54
2022-11-27T09:15:40.842Z,6.81
2022-11-27T09:18:12.043Z,6.75
2022-11-27T09:20:38.384Z,6.68
2022-11-27T09:23:05.646Z,6.25
2022-11-27T09:25:34.326Z,6.37
2022-11-27T09:28:01.172Z,6.50
2022-11-27T09:30:27.554Z,6.72
2022-11-27T09:32:53.952Z,6.65
2022-11-27T09:35:20.970Z,6.29
2022-11-27T09:37:47.412Z,6.82
2022-11-27T09:40:16.863Z,7.01
2022-11-27T09:42:50.500Z,7.13
2022-11-27T09:45:18.260Z,7.10
2022-11-27T09:47:59.160Z,7.14
2022-11-27T09:50:37.087Z,7.30
2022-11-27T09:53:27.984Z,6.93
2022-11-27T09:55:58.676Z,7.03
2022-11-27T09:58:46.941Z,7.09
2022-11-27T10:01:26.098Z,7.27
2022-11-27T10:03:55.822Z,7.46
2022-11-27T10:06:43.852Z,7.17
2022-11-27T10:09:25.367Z,6.87
2022-11-27T10:11:56.423Z,6.60
2022-11-27T10:14:28.714Z,7.08
2022-11-27T10:17:02.720Z,6.87
2022-11-27T10:19:43.964Z,6.73
2022-11-27T10:22:27.286Z,7.11
2022-11-27T10:25:20.374Z,6.82
2022-11-27T10:28:26.420Z,6.69
2022-11-27T10:30:58.692Z,6.64
2022-11-27T10:33:39.588Z,7.11
2022-11-27T10:36:13.723Z,7.35
2022-11-27T10:38:41.779Z,7.43
2022-11-27T10:44:29.862Z,6.64
2022-11-27T10:47:02.773Z,6.49
2022-11-27T10:49:29.465Z,6.41
2022-11-27T10:51:55.875Z,6.48
2022-11-27T10:54:27.910Z,6.74
2022-11-27T10:57:28.988Z,6.55
2022-11-27T11:00:09.579Z,6.38
2022-11-27T11:02:39.513Z,6.51
2022-11-27T11:05:37.346Z,6.59
2022-11-27T11:08:14.846Z,6.74
2022-11-27T11:10:52.839Z,6.80
2022-11-27T11:13:27.239Z,6.73
2022-11-27T11:16:01.286Z,6.53
2022-11-27T11:18:33.760Z,6.76
2022-11-27T11:21:02.887Z,6.75
2022-11-27T11:23:35.607Z,6.66
2022-11-27T11:26:23.955Z,6.73
2022-11-27T11:28:54.182Z,6.76
2022-11-27T11:31:23.630Z,6.60
2022-11-27T11:33:58.654Z,6.81
2022-11-27T11:36:25.078Z,7.18
2022-11-27T11:38:53.198Z,7.03
2022-11-27T11:41:20.214Z,6.82
2022-11-27T11:44:01.371Z,6.78
2022-11-27T11:46:32.014Z,6.88
2022-11-27T11:49:18.154Z,6.83
2022-11-27T11:52:21.114Z,6.90
2022-11-27T11:54:50.468Z,6.64
2022-11-27T11:57:39.913Z,6.86
2022-11-27T12:00:13.603Z,7.14
2022-11-27T12:02:42.788Z,6.98
2022-11-27T12:05:28.117Z,7.16
2022-11-27T12:08:03.433Z,7.17
2022-11-27T12:10:32.915Z,7.25
2022-11-27T12:13:20.943Z,7.18
2022-11-27T12:15:56.213Z,6.94
2022-11-27T12:18:31.724Z,7.08
2022-11-27T12:21:40.071Z,7.05
2022-11-27T12:24:39.561Z,7.15
2022-11-27T12:27:51.273Z,7.26
2022-11-27T12:30:58.467Z,6.96
2022-11-27T12:33:33.779Z,7.05
2022-11-27T12:36:37.785Z,7.20
2022-11-27T12:39:23.605Z,7.15
2022-11-27T12:42:23.129Z,7.54
2022-11-27T12:44:55.687Z,7.32
2022-11-27T12:47:41.867Z,7.37
2022-11-27T12:50:14.287Z,7.26
2022-11-27T12:52:46.084Z,7.34
2022-11-27T12:55:26.735Z,7.26
2022-11-27T12:58:00.128Z,7.00
2022-11-27T13:00:29.389Z,6.90
2022-11-27T13:03:18.407Z,7.08
2022-11-27T13:05:55.147Z,6.98
2022-11-27T13:08:21.459Z,7.01
2022-11-27T13:10:51.520Z,7.18
2022-11-27T13:13:24.143Z,7.17
2022-11-27T13:15:56.267Z,7.15
2022-11-27T13:18:44.299Z,6.87
2022-11-27T13:21:17.348Z,6.96
2022-11-27T13:23:44.153Z,6.79
2022-11-27T13:26:26.687Z,6.84
2022-11-27T13:28:58.331Z,6.91
2022-11-27T13:31:31.045Z,6.94
2022-11-27T13:34:05.773Z,6.78
2022-11-27T13:36:38.991Z,6.85
2022-11-27T13:39:06.118Z,6.68
2022-11-27T13:41:41.540Z,6.72
2022-11-27T13:44:25.829Z,6.77
2022-11-27T13:46:56.418Z,6.74
2022-11-27T13:49:36.140Z,6.80
2022-11-27T13:52:22.499Z,6.89
2022-11-27T13:54:57.259Z,6.78
2022-11-27T13:57:25.195Z,6.80
2022-11-27T13:59:58.399Z,6.71
2022-11-27T14:02:25.973Z,6.64
2022-11-27T14:04:56.487Z,6.74
2022-11-27T14:07:24.415Z,6.70
2022-11-27T14:09:58.117Z,6.78
2022-11-27T14:12:31.862Z,6.76
2022-11-27T14:15:23.326Z,6.78
2022-11-27T14:17:51.921Z,6.76
2022-11-27T14:20:18.243Z,6.73
2022-11-27T14:23:11.135Z,6.75
2022-11-27T14:25:38.064Z,6.65
2022-11-27T14:28:15.872Z,6.67
2022-11-27T14:30:49.460Z,6.69
2022-11-27T14:33:23.044Z,6.66
2022-11-27T14:36:00.731Z,6.62
2022-11-27T14:38:29.130Z,6.69
2022-11-27T14:41:10.677Z,6.61
2022-11-27T14:43:37.340Z,6.74
2022-11-27T14:46:05.193Z,6.63
2022-11-27T14:48:42.515Z,6.67
2022-11-27T14:51:15.709Z,6.70
2022-11-27T14:53:42.596Z,6.68
2022-11-27T14:56:09.223Z,6.70
2022-11-27T14:58:36.271Z,6.72
2022-11-27T15:01:06.042Z,6.71
2022-11-27T15:03:33.474Z,6.82
2022-11-27T15:06:05.556Z,6.70
2022-11-27T15:08:35.811Z,6.70
2022-11-27T15:11:04.794Z,6.74
2022-11-27T15:13:34.145Z,6.60
2022-11-27T15:16:07.143Z,6.78
2022-11-27T15:18:37.158Z,6.66
2022-11-27T15:21:10.829Z,6.58
2022-11-27T15:23:38.352Z,6.51
2022-11-27T15:26:15.201Z,6.61
2022-11-27T15:28:49.259Z,6.52
2022-11-27T15:31:37.163Z,6.50
2022-11-27T15:34:05.309Z,6.48
2022-11-27T15:36:43.972Z,6.52
2022-11-27T15:39:21.357Z,6.45
2022-11-27T15:42:14.770Z,6.48
2022-11-27T15:44:41.338Z,6.48
2022-11-27T15:47:23.181Z,6.52
2022-11-27T15:49:50.331Z,6.64
2022-11-27T15:52:16.783Z,6.55
2022-11-27T15:54:43.532Z,6.46
2022-11-27T15:57:10.548Z,6.73
2022-11-27T15:59:36.897Z,7.06
2022-11-27T16:02:03.467Z,7.10
2022-11-27T16:04:30.015Z,6.97
2022-11-27T16:06:56.407Z,6.90
2022-11-27T16:09:22.945Z,6.94
2022-11-27T16:11:49.420Z,7.00
2022-11-27T16:14:15.847Z,7.07
2022-11-27T16:16:42.549Z,6.84
2022-11-27T16:19:12.060Z,6.67
2022-11-27T16:21:38.627Z,6.69
2022-11-27T16:24:06.665Z,6.65
2022-11-27T16:26:33.221Z,6.56
2022-11-27T16:28:59.698Z,6.49
2022-11-27T16:31:27.040Z,6.68
2022-11-27T16:33:53.515Z,6.67
2022-11-27T16:36:21.162Z,6.84
2022-11-27T16:38:48.400Z,6.71
2022-11-27T16:41:18.291Z,6.50
2022-11-27T16:43:49.764Z,6.59
2022-11-27T16:46:19.720Z,6.46
2022-11-27T16:48:47.508Z,6.55
2022-11-27T16:51:25.792Z,6.61
2022-11-27T16:53:56.416Z,6.56
2022-11-27T16:56:25.629Z,6.60
2022-11-27T16:58:52.371Z,6.53
2022-11-27T17:01:21.963Z,6.69
2022-11-27T17:03:48.945Z,6.70
2022-11-27T17:06:18.120Z,6.56
2022-11-27T17:08:44.551Z,6.54
2022-11-27T17:11:11.816Z,6.52
2022-11-27T17:13:38.455Z,6.45
2022-11-27T17:16:06.718Z,6.51
2022-11-27T17:18:33.212Z,6.59
2022-11-27T17:21:05.198Z,6.72
2022-11-27T17:23:31.651Z,6.71
2022-11-27T17:25:58.071Z,6.79
2022-11-27T17:28:24.687Z,7.11
2022-11-27T17:30:51.057Z,6.93
2022-11-27T17:33:17.412Z,7.03
2022-11-27T17:35:43.791Z,7.07
2022-11-27T17:38:10.234Z,6.83
2022-11-27T17:40:36.792Z,6.84
2022-11-27T17:43:03.132Z,6.88
2022-11-27T17:45:29.600Z,6.91
2022-11-27T17:47:56.004Z,6.89
2022-11-27T17:50:22.376Z,6.86
2022-11-27T17:52:52.829Z,6.91
2022-11-27T17:55:19.264Z,6.96
2022-11-27T17:57:45.647Z,7.10
2022-11-27T18:00:12.782Z,7.10
2022-11-27T18:02:39.246Z,7.06
2022-11-27T18:05:06.195Z,7.01
2022-11-27T18:07:32.545Z,7.00
2022-11-27T18:09:59.197Z,6.90
2022-11-27T18:12:25.567Z,6.81
2022-11-27T18:14:56.493Z,6.67
2022-11-27T18:17:26.002Z,6.56
2022-11-27T18:19:52.483Z,6.59
2022-11-27T18:22:19.347Z,6.77
2022-11-27T18:24:45.984Z,6.54
2022-11-27T18:27:15.173Z,6.64
2022-11-27T18:29:44.747Z,6.65
2022-11-27T18:32:12.710Z,6.65
2022-11-27T18:34:39.272Z,6.66
2022-11-27T18:37:06.198Z,6.55
2022-11-27T18:39:33.300Z,6.68
2022-11-27T18:41:59.831Z,6.52
2022-11-27T18:44:26.927Z,6.49
2022-11-27T18:46:53.357Z,6.37
2022-11-27T18:49:21.763Z,6.39
2022-11-27T18:51:49.987Z,6.53
2022-11-27T18:54:16.524Z,6.52
2022-11-27T18:56:42.903Z,6.41
2022-11-27T18:59:09.299Z,6.41
2022-11-27T19:01:42.060Z,6.38
2022-11-27T19:04:10.271Z,6.39
2022-11-27T19:06:37.683Z,6.32
2022-11-27T19:09:05.743Z,6.39
2022-11-27T19:11:33.500Z,6.38
2022-11-27T19:14:00.355Z,6.46
2022-11-27T19:16:31.215Z,6.46
2022-11-27T19:18:59.433Z,6.42
2022-11-27T19:21:28.836Z,6.51
2022-11-27T19:23:57.425Z,6.57
2022-11-27T19:26:27.112Z,6.47
2022-11-27T19:28:55.892Z,6.33
2022-11-27T19:31:23.727Z,6.41
2022-11-27T19:33:55.212Z,6.39
2022-11-27T19:36:23.030Z,6.38
2022-11-27T19:38:54.870Z,6.43
2022-11-27T19:41:21.483Z,6.49
2022-11-27T19:43:48.052Z,6.58
2022-11-27T19:46:25.266Z,6.58
2022-11-27T19:48:56.532Z,6.67
2022-11-27T19:51:23.881Z,6.81
2022-11-27T19:53:50.733Z,6.85
2022-11-27T19:56:17.357Z,7.13
2022-11-27T19:58:43.748Z,7.05
2022-11-27T20:01:15.380Z,6.77
2022-11-27T20:04:09.338Z,6.82
2022-11-27T20:06:54.722Z,6.71
2022-11-27T20:10:02.876Z,6.84
2022-11-27T20:13:04.541Z,6.77
2022-11-27T20:15:44.808Z,6.67
2022-11-27T20:18:16.235Z,6.82
2022-11-27T20:21:12.688Z,6.86
2022-11-27T20:23:43.116Z,6.98
2022-11-27T20:26:21.770Z,6.91
2022-11-27T20:29:03.708Z,7.06
2022-11-27T20:31:43.625Z,6.88
2022-11-27T20:34:17.635Z,6.86
2022-11-27T20:36:44.048Z,6.80
2022-11-27T20:39:12.974Z,6.69
2022-11-27T20:41:41.588Z,6.60
2022-11-27T20:44:07.945Z,6.56
2022-11-27T20:46:34.399Z,6.59
2022-11-27T20:49:01.064Z,6.59
2022-11-27T20:51:30.952Z,6.58
2022-11-27T20:53:59.247Z,6.57
2022-11-27T20:56:26.445Z,6.66
2022-11-27T20:58:53.015Z,6.68
2022-11-27T21:01:21.911Z,6.60
2022-11-27T21:03:50.556Z,6.60
2022-11-27T21:06:19.812Z,6.62
2022-11-27T21:08:46.611Z,6.65
2022-11-27T21:11:16.119Z,6.63
2022-11-27T21:13:42.920Z,6.79
2022-11-27T21:16:11.825Z,6.83
2022-11-27T21:18:38.679Z,6.62
2022-11-27T21:21:12.663Z,6.62
2022-11-27T21:23:40.404Z,6.74
2022-11-27T21:26:07.735Z,6.54
2022-11-27T21:28:34.767Z,6.64
2022-11-27T21:31:09.772Z,6.66
2022-11-27T21:33:37.059Z,6.64
2022-11-27T21:36:04.928Z,6.60
2022-11-27T21:38:31.340Z,6.64
2022-11-27T21:40:57.698Z,6.57
2022-11-27T21:43:24.211Z,6.58
2022-11-27T21:45:50.704Z,6.58
2022-11-27T21:48:17.503Z,6.64
2022-11-27T21:50:43.879Z,6.61
2022-11-27T21:53:10.234Z,6.75
2022-11-27T21:55:43.214Z,6.71
2022-11-27T21:58:09.727Z,6.66
2022-11-27T22:00:36.962Z,6.63
2022-11-27T22:03:03.637Z,6.70
2022-11-27T22:05:30.152Z,6.76
2022-11-27T22:07:56.723Z,6.80
2022-11-27T22:10:23.292Z,6.77
2022-11-27T22:12:49.730Z,6.82
2022-11-27T22:15:18.855Z,6.90
2022-11-27T22:17:45.304Z,6.81
2022-11-27T22:20:12.540Z,6.62
2022-11-27T22:22:38.910Z,6.59
2022-11-27T22:25:05.812Z,6.60
2022-11-27T22:27:32.251Z,6.60
2022-11-27T22:29:58.652Z,6.60
2022-11-27T22:32:25.135Z,6.69
2022-11-27T22:34:51.683Z,6.79
2022-11-27T22:37:18.023Z,6.61
2022-11-27T22:39:44.551Z,6.60
2022-11-27T22:42:12.121Z,6.53
2022-11-27T22:44:38.721Z,6.60
2022-11-27T22:47:05.248Z,6.54
2022-11-27T22:49:31.639Z,6.60
2022-11-27T22:51:58.015Z,6.68
2022-11-27T22:54:24.568Z,6.54
2022-11-27T22:56:50.908Z,6.48
2022-11-27T22:59:32.387Z,6.50
2022-11-27T23:02:00.236Z,6.49
2022-11-27T23:04:26.711Z,6.35
2022-11-27T23:06:53.192Z,6.34
2022-11-27T23:09:19.663Z,6.31
2022-11-27T23:11:47.246Z,6.32
2022-11-27T23:14:13.705Z,6.37
2022-11-27T23:16:40.162Z,6.32
2022-11-27T23:19:06.909Z,6.20
2022-11-27T23:21:37.236Z,6.16
2022-11-27T23:24:04.888Z,6.26
2022-11-27T23:26:32.044Z,6.27
2022-11-27T23:28:58.496Z,6.21
2022-11-27T23:31:30.729Z,6.23
2022-11-27T23:33:59.100Z,6.28
2022-11-27T23:36:25.722Z,6.26
2022-11-27T23:38:52.284Z,6.28
2022-11-27T23:41:25.027Z,6.38
2022-11-27T23:43:52.329Z,6.41
2022-11-27T23:46:20.638Z,6.30
2022-11-27T23:48:47.165Z,6.31
2022-11-27T23:51:19.311Z,6.22
2022-11-27T23:53:47.063Z,6.22
2022-11-27T23:56:16.091Z,6.37
2022-11-27T23:58:46.999Z,6.26
